sensor_id;sensor_type;location;lat;lon;timestamp;temperature;humidity
78448;SHT31;67742;51.972;5.682;2023-08-30T00:00:16;17.0;65.3
78448;SHT31;67742;51.972;5.682;2023-08-30T00:02:47;17.0;65.3
78448;SHT31;67742;51.972;5.682;2023-08-30T00:05:17;17.0;65.3
78448;SHT31;67742;51.972;5.682;2023-08-30T00:07:45;17.0;65.3
78448;SHT31;67742;51.972;5.682;2023-08-30T00:10:14;17.0;65.0
78448;SHT31;67742;51.972;5.682;2023-08-30T00:12:44;17.0;65.1
78448;SHT31;67742;51.972;5.682;2023-08-30T00:15:14;17.0;65.0
78448;SHT31;67742;51.972;5.682;2023-08-30T00:17:42;17.0;64.9
78448;SHT31;67742;51.972;5.682;2023-08-30T00:20:12;17.0;65.0
78448;SHT31;67742;51.972;5.682;2023-08-30T00:22:40;17.0;65.0
78448;SHT31;67742;51.972;5.682;2023-08-30T00:25:09;17.0;65.0
78448;SHT31;67742;51.972;5.682;2023-08-30T00:27:38;17.0;64.7
78448;SHT31;67742;51.972;5.682;2023-08-30T00:30:09;17.0;64.8
78448;SHT31;67742;51.972;5.682;2023-08-30T00:32:38;17.0;64.7
78448;SHT31;67742;51.972;5.682;2023-08-30T00:35:08;17.0;64.7
78448;SHT31;67742;51.972;5.682;2023-08-30T00:37:37;16.9;64.8
78448;SHT31;67742;51.972;5.682;2023-08-30T00:40:07;16.9;64.8
78448;SHT31;67742;51.972;5.682;2023-08-30T00:42:38;16.9;64.7
78448;SHT31;67742;51.972;5.682;2023-08-30T00:45:09;16.9;64.9
78448;SHT31;67742;51.972;5.682;2023-08-30T00:47:38;16.9;64.9
78448;SHT31;67742;51.972;5.682;2023-08-30T00:50:08;16.9;64.9
78448;SHT31;67742;51.972;5.682;2023-08-30T00:52:37;16.8;65.0
78448;SHT31;67742;51.972;5.682;2023-08-30T00:55:07;16.8;64.9
78448;SHT31;67742;51.972;5.682;2023-08-30T00:57:37;16.8;64.8
78448;SHT31;67742;51.972;5.682;2023-08-30T01:00:06;16.8;64.7
78448;SHT31;67742;51.972;5.682;2023-08-30T01:02:36;16.8;64.8
78448;SHT31;67742;51.972;5.682;2023-08-30T01:05:09;16.8;64.9
78448;SHT31;67742;51.972;5.682;2023-08-30T01:07:38;16.7;64.8
78448;SHT31;67742;51.972;5.682;2023-08-30T01:10:08;16.7;64.7
78448;SHT31;67742;51.972;5.682;2023-08-30T01:12:42;16.7;64.7
78448;SHT31;67742;51.972;5.682;2023-08-30T01:15:15;16.7;64.6
78448;SHT31;67742;51.972;5.682;2023-08-30T01:17:50;16.7;64.7
78448;SHT31;67742;51.972;5.682;2023-08-30T01:20:23;16.6;64.6
78448;SHT31;67742;51.972;5.682;2023-08-30T01:23:00;16.6;64.7
78448;SHT31;67742;51.972;5.682;2023-08-30T01:25:45;16.6;64.7
78448;SHT31;67742;51.972;5.682;2023-08-30T01:28:19;16.6;64.9
78448;SHT31;67742;51.972;5.682;2023-08-30T01:30:49;16.5;65.0
78448;SHT31;67742;51.972;5.682;2023-08-30T01:33:21;16.5;65.1
78448;SHT31;67742;51.972;5.682;2023-08-30T01:35:53;16.5;65.2
78448;SHT31;67742;51.972;5.682;2023-08-30T01:38:23;16.5;65.3
78448;SHT31;67742;51.972;5.682;2023-08-30T01:40:55;16.5;65.4
78448;SHT31;67742;51.972;5.682;2023-08-30T01:43:27;16.5;65.3
78448;SHT31;67742;51.972;5.682;2023-08-30T01:45:57;16.5;65.5
78448;SHT31;67742;51.972;5.682;2023-08-30T01:48:28;16.5;65.6
78448;SHT31;67742;51.972;5.682;2023-08-30T01:50:59;16.4;65.5
78448;SHT31;67742;51.972;5.682;2023-08-30T01:53:29;16.4;65.5
78448;SHT31;67742;51.972;5.682;2023-08-30T01:55:59;16.4;65.8
78448;SHT31;67742;51.972;5.682;2023-08-30T01:58:28;16.4;65.6
78448;SHT31;67742;51.972;5.682;2023-08-30T02:00:57;16.4;65.7
78448;SHT31;67742;51.972;5.682;2023-08-30T02:03:25;16.4;65.9
78448;SHT31;67742;51.972;5.682;2023-08-30T02:06:00;16.4;65.9
78448;SHT31;67742;51.972;5.682;2023-08-30T02:08:36;16.4;65.7
78448;SHT31;67742;51.972;5.682;2023-08-30T02:11:11;16.4;65.6
78448;SHT31;67742;51.972;5.682;2023-08-30T02:13:43;16.4;65.7
78448;SHT31;67742;51.972;5.682;2023-08-30T02:16:14;16.4;65.8
78448;SHT31;67742;51.972;5.682;2023-08-30T02:18:43;16.4;65.7
78448;SHT31;67742;51.972;5.682;2023-08-30T02:21:13;16.5;65.8
78448;SHT31;67742;51.972;5.682;2023-08-30T02:23:41;16.5;65.8
78448;SHT31;67742;51.972;5.682;2023-08-30T02:26:09;16.5;65.7
78448;SHT31;67742;51.972;5.682;2023-08-30T02:28:38;16.5;65.3
78448;SHT31;67742;51.972;5.682;2023-08-30T02:31:06;16.5;65.5
78448;SHT31;67742;51.972;5.682;2023-08-30T02:33:35;16.5;65.3
78448;SHT31;67742;51.972;5.682;2023-08-30T02:36:06;16.5;65.4
78448;SHT31;67742;51.972;5.682;2023-08-30T02:38:36;16.5;65.3
78448;SHT31;67742;51.972;5.682;2023-08-30T02:41:05;16.5;65.3
78448;SHT31;67742;51.972;5.682;2023-08-30T02:43:34;16.5;65.2
78448;SHT31;67742;51.972;5.682;2023-08-30T02:46:04;16.5;65.2
78448;SHT31;67742;51.972;5.682;2023-08-30T02:48:32;16.5;65.2
78448;SHT31;67742;51.972;5.682;2023-08-30T02:51:01;16.5;65.2
78448;SHT31;67742;51.972;5.682;2023-08-30T02:53:30;16.5;65.1
78448;SHT31;67742;51.972;5.682;2023-08-30T02:55:59;16.5;65.3
78448;SHT31;67742;51.972;5.682;2023-08-30T02:58:27;16.5;65.0
78448;SHT31;67742;51.972;5.682;2023-08-30T03:00:55;16.5;65.2
78448;SHT31;67742;51.972;5.682;2023-08-30T03:03:24;16.5;64.9
78448;SHT31;67742;51.972;5.682;2023-08-30T03:05:52;16.5;64.9
78448;SHT31;67742;51.972;5.682;2023-08-30T03:08:20;16.5;64.2
78448;SHT31;67742;51.972;5.682;2023-08-30T03:10:49;16.6;64.3
78448;SHT31;67742;51.972;5.682;2023-08-30T03:13:17;16.6;64.7
78448;SHT31;67742;51.972;5.682;2023-08-30T03:15:46;16.6;64.6
78448;SHT31;67742;51.972;5.682;2023-08-30T03:18:14;16.6;64.6
78448;SHT31;67742;51.972;5.682;2023-08-30T03:20:43;16.6;64.6
78448;SHT31;67742;51.972;5.682;2023-08-30T03:23:13;16.6;64.4
78448;SHT31;67742;51.972;5.682;2023-08-30T03:25:42;16.6;64.5
78448;SHT31;67742;51.972;5.682;2023-08-30T03:28:12;16.6;64.3
78448;SHT31;67742;51.972;5.682;2023-08-30T03:30:40;16.6;64.3
78448;SHT31;67742;51.972;5.682;2023-08-30T03:33:09;16.6;64.3
78448;SHT31;67742;51.972;5.682;2023-08-30T03:35:38;16.6;64.2
78448;SHT31;67742;51.972;5.682;2023-08-30T03:38:07;16.6;64.2
78448;SHT31;67742;51.972;5.682;2023-08-30T03:40:35;16.6;64.1
78448;SHT31;67742;51.972;5.682;2023-08-30T03:43:06;16.6;63.9
78448;SHT31;67742;51.972;5.682;2023-08-30T03:45:36;16.6;63.9
78448;SHT31;67742;51.972;5.682;2023-08-30T03:48:06;16.6;63.9
78448;SHT31;67742;51.972;5.682;2023-08-30T03:50:34;16.6;63.8
78448;SHT31;67742;51.972;5.682;2023-08-30T03:53:03;16.5;63.6
78448;SHT31;67742;51.972;5.682;2023-08-30T03:55:31;16.5;63.4
78448;SHT31;67742;51.972;5.682;2023-08-30T03:58:00;16.5;63.4
78448;SHT31;67742;51.972;5.682;2023-08-30T04:00:29;16.5;63.3
78448;SHT31;67742;51.972;5.682;2023-08-30T04:02:58;16.5;63.0
78448;SHT31;67742;51.972;5.682;2023-08-30T04:05:28;16.5;63.0
78448;SHT31;67742;51.972;5.682;2023-08-30T04:08:02;16.4;62.9
78448;SHT31;67742;51.972;5.682;2023-08-30T04:10:34;16.4;63.0
78448;SHT31;67742;51.972;5.682;2023-08-30T04:13:03;16.4;62.9
78448;SHT31;67742;51.972;5.682;2023-08-30T04:15:34;16.4;62.9
78448;SHT31;67742;51.972;5.682;2023-08-30T04:18:04;16.4;63.0
78448;SHT31;67742;51.972;5.682;2023-08-30T04:20:34;16.3;63.1
78448;SHT31;67742;51.972;5.682;2023-08-30T04:23:03;16.3;63.2
78448;SHT31;67742;51.972;5.682;2023-08-30T04:25:34;16.3;63.2
78448;SHT31;67742;51.972;5.682;2023-08-30T04:28:04;16.3;63.3
78448;SHT31;67742;51.972;5.682;2023-08-30T04:30:35;16.2;63.3
78448;SHT31;67742;51.972;5.682;2023-08-30T04:33:05;16.2;63.4
78448;SHT31;67742;51.972;5.682;2023-08-30T04:35:34;16.2;63.4
78448;SHT31;67742;51.972;5.682;2023-08-30T04:38:03;16.2;63.4
78448;SHT31;67742;51.972;5.682;2023-08-30T04:40:32;16.1;63.5
78448;SHT31;67742;51.972;5.682;2023-08-30T04:43:01;16.1;63.6
78448;SHT31;67742;51.972;5.682;2023-08-30T04:45:32;16.1;63.6
78448;SHT31;67742;51.972;5.682;2023-08-30T04:48:02;16.1;63.7
78448;SHT31;67742;51.972;5.682;2023-08-30T04:50:31;16.0;63.7
78448;SHT31;67742;51.972;5.682;2023-08-30T04:53:00;16.0;64.0
78448;SHT31;67742;51.972;5.682;2023-08-30T04:55:30;16.0;63.9
78448;SHT31;67742;51.972;5.682;2023-08-30T04:57:59;16.0;64.0
78448;SHT31;67742;51.972;5.682;2023-08-30T05:00:27;16.0;64.0
78448;SHT31;67742;51.972;5.682;2023-08-30T05:02:57;16.0;64.2
78448;SHT31;67742;51.972;5.682;2023-08-30T05:05:26;15.9;64.3
78448;SHT31;67742;51.972;5.682;2023-08-30T05:07:54;15.9;64.2
78448;SHT31;67742;51.972;5.682;2023-08-30T05:10:22;15.9;64.4
78448;SHT31;67742;51.972;5.682;2023-08-30T05:12:51;15.9;64.6
78448;SHT31;67742;51.972;5.682;2023-08-30T05:15:20;15.9;64.6
78448;SHT31;67742;51.972;5.682;2023-08-30T05:17:48;15.9;64.6
78448;SHT31;67742;51.972;5.682;2023-08-30T05:20:17;15.9;64.5
78448;SHT31;67742;51.972;5.682;2023-08-30T05:22:45;15.9;64.7
78448;SHT31;67742;51.972;5.682;2023-08-30T05:25:14;15.8;64.8
78448;SHT31;67742;51.972;5.682;2023-08-30T05:27:42;15.8;64.9
78448;SHT31;67742;51.972;5.682;2023-08-30T05:30:13;15.8;65.0
78448;SHT31;67742;51.972;5.682;2023-08-30T05:32:42;15.8;65.1
78448;SHT31;67742;51.972;5.682;2023-08-30T05:35:11;15.8;65.2
78448;SHT31;67742;51.972;5.682;2023-08-30T05:37:39;15.8;65.3
78448;SHT31;67742;51.972;5.682;2023-08-30T05:40:09;15.8;65.4
78448;SHT31;67742;51.972;5.682;2023-08-30T05:42:41;15.8;65.6
78448;SHT31;67742;51.972;5.682;2023-08-30T05:45:11;15.8;65.9
78448;SHT31;67742;51.972;5.682;2023-08-30T05:47:39;15.8;66.3
78448;SHT31;67742;51.972;5.682;2023-08-30T05:50:09;15.8;66.2
78448;SHT31;67742;51.972;5.682;2023-08-30T05:52:37;15.8;66.6
78448;SHT31;67742;51.972;5.682;2023-08-30T05:55:08;15.8;66.6
78448;SHT31;67742;51.972;5.682;2023-08-30T05:57:37;15.8;66.9
78448;SHT31;67742;51.972;5.682;2023-08-30T06:00:07;15.8;67.3
78448;SHT31;67742;51.972;5.682;2023-08-30T06:02:36;15.8;67.3
78448;SHT31;67742;51.972;5.682;2023-08-30T06:05:04;15.8;67.1
78448;SHT31;67742;51.972;5.682;2023-08-30T06:07:33;15.9;67.0
78448;SHT31;67742;51.972;5.682;2023-08-30T06:10:02;15.9;67.5
78448;SHT31;67742;51.972;5.682;2023-08-30T06:12:31;15.9;67.7
78448;SHT31;67742;51.972;5.682;2023-08-30T06:15:01;15.9;67.9
78448;SHT31;67742;51.972;5.682;2023-08-30T06:17:30;16.0;67.9
78448;SHT31;67742;51.972;5.682;2023-08-30T06:19:58;16.0;68.2
78448;SHT31;67742;51.972;5.682;2023-08-30T06:22:27;16.0;68.1
78448;SHT31;67742;51.972;5.682;2023-08-30T06:24:55;16.1;68.3
78448;SHT31;67742;51.972;5.682;2023-08-30T06:27:24;16.1;68.1
78448;SHT31;67742;51.972;5.682;2023-08-30T06:29:53;16.1;68.2
78448;SHT31;67742;51.972;5.682;2023-08-30T06:32:21;16.2;68.2
78448;SHT31;67742;51.972;5.682;2023-08-30T06:34:50;16.2;67.9
78448;SHT31;67742;51.972;5.682;2023-08-30T06:37:18;16.2;68.1
78448;SHT31;67742;51.972;5.682;2023-08-30T06:39:46;16.2;68.1
78448;SHT31;67742;51.972;5.682;2023-08-30T06:42:15;16.3;68.2
78448;SHT31;67742;51.972;5.682;2023-08-30T06:44:44;16.3;68.1
78448;SHT31;67742;51.972;5.682;2023-08-30T06:47:12;16.3;68.1
78448;SHT31;67742;51.972;5.682;2023-08-30T06:49:41;16.4;67.4
78448;SHT31;67742;51.972;5.682;2023-08-30T06:52:09;16.4;67.6
78448;SHT31;67742;51.972;5.682;2023-08-30T06:54:38;16.4;68.1
78448;SHT31;67742;51.972;5.682;2023-08-30T06:57:06;16.5;68.1
78448;SHT31;67742;51.972;5.682;2023-08-30T06:59:35;16.5;68.2
78448;SHT31;67742;51.972;5.682;2023-08-30T07:02:04;16.5;68.5
78448;SHT31;67742;51.972;5.682;2023-08-30T07:04:33;16.5;68.4
78448;SHT31;67742;51.972;5.682;2023-08-30T07:07:01;16.5;69.0
78448;SHT31;67742;51.972;5.682;2023-08-30T07:09:31;16.5;69.2
78448;SHT31;67742;51.972;5.682;2023-08-30T07:11:59;16.6;69.8
78448;SHT31;67742;51.972;5.682;2023-08-30T07:14:28;16.6;69.8
78448;SHT31;67742;51.972;5.682;2023-08-30T07:16:56;16.6;69.8
78448;SHT31;67742;51.972;5.682;2023-08-30T07:19:25;16.6;70.0
78448;SHT31;67742;51.972;5.682;2023-08-30T07:21:54;16.6;70.4
78448;SHT31;67742;51.972;5.682;2023-08-30T07:24:23;16.7;70.5
78448;SHT31;67742;51.972;5.682;2023-08-30T07:26:51;16.7;70.6
78448;SHT31;67742;51.972;5.682;2023-08-30T07:29:21;16.7;70.6
78448;SHT31;67742;51.972;5.682;2023-08-30T07:31:50;16.7;71.0
78448;SHT31;67742;51.972;5.682;2023-08-30T07:34:20;16.7;70.9
78448;SHT31;67742;51.972;5.682;2023-08-30T07:36:49;16.7;70.9
78448;SHT31;67742;51.972;5.682;2023-08-30T07:39:17;16.7;71.0
78448;SHT31;67742;51.972;5.682;2023-08-30T07:41:45;16.8;71.2
78448;SHT31;67742;51.972;5.682;2023-08-30T07:44:14;16.8;71.2
78448;SHT31;67742;51.972;5.682;2023-08-30T07:46:43;16.8;71.4
78448;SHT31;67742;51.972;5.682;2023-08-30T07:49:11;16.8;71.1
78448;SHT31;67742;51.972;5.682;2023-08-30T07:51:40;16.8;71.5
78448;SHT31;67742;51.972;5.682;2023-08-30T07:54:08;16.8;71.3
78448;SHT31;67742;51.972;5.682;2023-08-30T07:56:37;16.8;71.3
78448;SHT31;67742;51.972;5.682;2023-08-30T07:59:05;16.8;71.4
78448;SHT31;67742;51.972;5.682;2023-08-30T08:01:34;16.8;71.6
78448;SHT31;67742;51.972;5.682;2023-08-30T08:04:02;16.8;71.5
78448;SHT31;67742;51.972;5.682;2023-08-30T08:06:30;16.8;71.6
78448;SHT31;67742;51.972;5.682;2023-08-30T08:08:59;16.9;71.6
78448;SHT31;67742;51.972;5.682;2023-08-30T08:11:28;16.9;71.4
78448;SHT31;67742;51.972;5.682;2023-08-30T08:13:57;16.9;71.4
78448;SHT31;67742;51.972;5.682;2023-08-30T08:16:25;16.9;71.4
78448;SHT31;67742;51.972;5.682;2023-08-30T08:18:54;16.9;71.5
78448;SHT31;67742;51.972;5.682;2023-08-30T08:21:25;16.9;72.0
78448;SHT31;67742;51.972;5.682;2023-08-30T08:23:54;16.9;71.8
78448;SHT31;67742;51.972;5.682;2023-08-30T08:26:23;16.9;72.2
78448;SHT31;67742;51.972;5.682;2023-08-30T08:28:51;17.0;72.1
78448;SHT31;67742;51.972;5.682;2023-08-30T08:31:20;17.0;72.4
78448;SHT31;67742;51.972;5.682;2023-08-30T08:33:50;17.0;72.0
78448;SHT31;67742;51.972;5.682;2023-08-30T08:36:19;17.0;72.2
78448;SHT31;67742;51.972;5.682;2023-08-30T08:38:48;17.0;72.4
78448;SHT31;67742;51.972;5.682;2023-08-30T08:41:16;17.1;72.2
78448;SHT31;67742;51.972;5.682;2023-08-30T08:43:45;17.1;72.1
78448;SHT31;67742;51.972;5.682;2023-08-30T08:46:16;17.1;72.1
78448;SHT31;67742;51.972;5.682;2023-08-30T08:48:48;17.1;72.2
78448;SHT31;67742;51.972;5.682;2023-08-30T08:51:19;17.1;72.2
78448;SHT31;67742;51.972;5.682;2023-08-30T08:53:48;17.1;72.3
78448;SHT31;67742;51.972;5.682;2023-08-30T08:56:17;17.1;72.1
78448;SHT31;67742;51.972;5.682;2023-08-30T08:58:45;17.2;72.1
78448;SHT31;67742;51.972;5.682;2023-08-30T09:01:15;17.2;72.3
78448;SHT31;67742;51.972;5.682;2023-08-30T09:03:44;17.2;72.0
78448;SHT31;67742;51.972;5.682;2023-08-30T09:06:12;17.2;72.0
78448;SHT31;67742;51.972;5.682;2023-08-30T09:08:41;17.2;72.4
78448;SHT31;67742;51.972;5.682;2023-08-30T09:11:10;17.2;72.2
78448;SHT31;67742;51.972;5.682;2023-08-30T09:13:39;17.2;72.3
78448;SHT31;67742;51.972;5.682;2023-08-30T09:16:13;17.2;72.4
78448;SHT31;67742;51.972;5.682;2023-08-30T09:18:43;17.3;72.6
78448;SHT31;67742;51.972;5.682;2023-08-30T09:21:11;17.3;72.7
78448;SHT31;67742;51.972;5.682;2023-08-30T09:23:42;17.3;72.6
78448;SHT31;67742;51.972;5.682;2023-08-30T09:26:10;17.3;72.9
78448;SHT31;67742;51.972;5.682;2023-08-30T09:28:43;17.3;73.1
78448;SHT31;67742;51.972;5.682;2023-08-30T09:31:18;17.3;73.4
78448;SHT31;67742;51.972;5.682;2023-08-30T09:33:50;17.3;73.4
78448;SHT31;67742;51.972;5.682;2023-08-30T09:36:20;17.3;73.2
78448;SHT31;67742;51.972;5.682;2023-08-30T09:38:51;17.3;73.8
78448;SHT31;67742;51.972;5.682;2023-08-30T09:41:24;17.3;74.2
78448;SHT31;67742;51.972;5.682;2023-08-30T09:43:53;17.3;74.2
78448;SHT31;67742;51.972;5.682;2023-08-30T09:46:22;17.3;74.3
78448;SHT31;67742;51.972;5.682;2023-08-30T09:48:53;17.3;74.0
78448;SHT31;67742;51.972;5.682;2023-08-30T09:51:24;17.3;74.6
78448;SHT31;67742;51.972;5.682;2023-08-30T09:53:58;17.4;75.0
78448;SHT31;67742;51.972;5.682;2023-08-30T09:56:31;17.4;75.5
78448;SHT31;67742;51.972;5.682;2023-08-30T09:59:02;17.4;76.0
78448;SHT31;67742;51.972;5.682;2023-08-30T10:01:32;17.5;76.1
78448;SHT31;67742;51.972;5.682;2023-08-30T10:04:05;17.5;76.1
78448;SHT31;67742;51.972;5.682;2023-08-30T10:06:35;17.5;76.3
78448;SHT31;67742;51.972;5.682;2023-08-30T10:09:08;17.6;76.4
78448;SHT31;67742;51.972;5.682;2023-08-30T10:11:38;17.6;76.7
78448;SHT31;67742;51.972;5.682;2023-08-30T10:14:07;17.7;76.6
78448;SHT31;67742;51.972;5.682;2023-08-30T10:16:41;17.7;76.8
78448;SHT31;67742;51.972;5.682;2023-08-30T10:19:14;17.8;76.3
78448;SHT31;67742;51.972;5.682;2023-08-30T10:21:44;17.8;77.1
78448;SHT31;67742;51.972;5.682;2023-08-30T10:24:18;17.9;76.4
78448;SHT31;67742;51.972;5.682;2023-08-30T10:26:48;18.0;76.1
78448;SHT31;67742;51.972;5.682;2023-08-30T10:29:20;18.0;75.6
78448;SHT31;67742;51.972;5.682;2023-08-30T10:31:49;18.1;75.6
78448;SHT31;67742;51.972;5.682;2023-08-30T10:34:18;18.1;76.2
78448;SHT31;67742;51.972;5.682;2023-08-30T10:36:59;18.2;76.1
78448;SHT31;67742;51.972;5.682;2023-08-30T10:39:36;18.3;76.8
78448;SHT31;67742;51.972;5.682;2023-08-30T10:42:12;18.3;77.4
78448;SHT31;67742;51.972;5.682;2023-08-30T10:44:50;18.4;77.4
78448;SHT31;67742;51.972;5.682;2023-08-30T10:47:22;18.5;77.1
78448;SHT31;67742;51.972;5.682;2023-08-30T10:49:53;18.6;75.9
78448;SHT31;67742;51.972;5.682;2023-08-30T10:52:23;18.7;75.3
78448;SHT31;67742;51.972;5.682;2023-08-30T10:54:52;18.7;74.4
78448;SHT31;67742;51.972;5.682;2023-08-30T10:57:24;18.8;73.7
78448;SHT31;67742;51.972;5.682;2023-08-30T11:00:07;18.8;72.2
78448;SHT31;67742;51.972;5.682;2023-08-30T11:02:37;18.8;71.8
78448;SHT31;67742;51.972;5.682;2023-08-30T11:05:08;18.8;71.8
78448;SHT31;67742;51.972;5.682;2023-08-30T11:07:37;18.8;71.8
78448;SHT31;67742;51.972;5.682;2023-08-30T11:10:07;18.9;71.5
78448;SHT31;67742;51.972;5.682;2023-08-30T11:12:36;18.9;69.3
78448;SHT31;67742;51.972;5.682;2023-08-30T11:15:07;18.9;67.0
78448;SHT31;67742;51.972;5.682;2023-08-30T11:17:37;18.8;66.8
78448;SHT31;67742;51.972;5.682;2023-08-30T11:20:11;18.8;67.7
78448;SHT31;67742;51.972;5.682;2023-08-30T11:22:43;18.8;67.9
78448;SHT31;67742;51.972;5.682;2023-08-30T11:25:13;18.8;67.9
78448;SHT31;67742;51.972;5.682;2023-08-30T11:27:43;18.7;67.1
78448;SHT31;67742;51.972;5.682;2023-08-30T11:30:13;18.7;67.4
78448;SHT31;67742;51.972;5.682;2023-08-30T11:32:42;18.7;68.6
78448;SHT31;67742;51.972;5.682;2023-08-30T11:35:11;18.8;67.9
78448;SHT31;67742;51.972;5.682;2023-08-30T11:37:40;18.8;67.2
78448;SHT31;67742;51.972;5.682;2023-08-30T11:40:11;18.8;67.5
78448;SHT31;67742;51.972;5.682;2023-08-30T11:42:41;18.9;65.8
78448;SHT31;67742;51.972;5.682;2023-08-30T11:45:14;18.9;67.7
78448;SHT31;67742;51.972;5.682;2023-08-30T11:47:43;19.0;67.7
78448;SHT31;67742;51.972;5.682;2023-08-30T11:50:12;19.0;67.3
78448;SHT31;67742;51.972;5.682;2023-08-30T11:52:41;19.1;66.6
78448;SHT31;67742;51.972;5.682;2023-08-30T11:55:11;19.2;65.1
78448;SHT31;67742;51.972;5.682;2023-08-30T11:57:43;19.3;63.6
78448;SHT31;67742;51.972;5.682;2023-08-30T12:00:18;19.3;62.6
78448;SHT31;67742;51.972;5.682;2023-08-30T12:02:46;19.4;62.3
78448;SHT31;67742;51.972;5.682;2023-08-30T12:05:15;19.4;61.1
78448;SHT31;67742;51.972;5.682;2023-08-30T12:07:46;19.4;59.9
78448;SHT31;67742;51.972;5.682;2023-08-30T12:10:18;19.4;59.7
78448;SHT31;67742;51.972;5.682;2023-08-30T12:12:48;19.4;60.2
78448;SHT31;67742;51.972;5.682;2023-08-30T12:15:16;19.4;60.5
78448;SHT31;67742;51.972;5.682;2023-08-30T12:17:45;19.4;61.0
78448;SHT31;67742;51.972;5.682;2023-08-30T12:20:18;19.4;60.4
78448;SHT31;67742;51.972;5.682;2023-08-30T12:22:50;19.4;61.6
78448;SHT31;67742;51.972;5.682;2023-08-30T12:25:21;19.4;62.0
78448;SHT31;67742;51.972;5.682;2023-08-30T12:27:51;19.4;60.5
78448;SHT31;67742;51.972;5.682;2023-08-30T12:30:19;19.5;61.0
78448;SHT31;67742;51.972;5.682;2023-08-30T12:32:48;19.5;60.6
78448;SHT31;67742;51.972;5.682;2023-08-30T12:35:17;19.5;61.2
78448;SHT31;67742;51.972;5.682;2023-08-30T12:37:47;19.5;60.5
78448;SHT31;67742;51.972;5.682;2023-08-30T12:40:17;19.6;61.0
78448;SHT31;67742;51.972;5.682;2023-08-30T12:42:47;19.6;61.9
78448;SHT31;67742;51.972;5.682;2023-08-30T12:45:16;19.6;61.1
78448;SHT31;67742;51.972;5.682;2023-08-30T12:47:44;19.7;61.4
78448;SHT31;67742;51.972;5.682;2023-08-30T12:50:13;19.7;60.9
78448;SHT31;67742;51.972;5.682;2023-08-30T12:52:44;19.8;61.1
78448;SHT31;67742;51.972;5.682;2023-08-30T12:55:14;19.8;59.8
78448;SHT31;67742;51.972;5.682;2023-08-30T12:57:45;19.9;61.1
78448;SHT31;67742;51.972;5.682;2023-08-30T13:00:15;19.9;61.5
78448;SHT31;67742;51.972;5.682;2023-08-30T13:02:44;20.0;62.1
78448;SHT31;67742;51.972;5.682;2023-08-30T13:05:14;20.1;61.0
78448;SHT31;67742;51.972;5.682;2023-08-30T13:07:43;20.2;60.2
78448;SHT31;67742;51.972;5.682;2023-08-30T13:10:13;20.3;58.8
78448;SHT31;67742;51.972;5.682;2023-08-30T13:12:41;20.4;58.4
78448;SHT31;67742;51.972;5.682;2023-08-30T13:15:10;20.5;57.5
78448;SHT31;67742;51.972;5.682;2023-08-30T13:17:39;20.6;58.3
78448;SHT31;67742;51.972;5.682;2023-08-30T13:20:09;20.6;56.1
78448;SHT31;67742;51.972;5.682;2023-08-30T13:22:39;20.7;54.7
78448;SHT31;67742;51.972;5.682;2023-08-30T13:25:09;20.7;53.7
78448;SHT31;67742;51.972;5.682;2023-08-30T13:27:37;20.7;53.7
78448;SHT31;67742;51.972;5.682;2023-08-30T13:30:07;20.7;54.7
78448;SHT31;67742;51.972;5.682;2023-08-30T13:32:38;20.7;55.0
78448;SHT31;67742;51.972;5.682;2023-08-30T13:35:10;20.8;53.8
78448;SHT31;67742;51.972;5.682;2023-08-30T13:37:38;20.8;54.5
78448;SHT31;67742;51.972;5.682;2023-08-30T13:40:08;20.8;54.5
78448;SHT31;67742;51.972;5.682;2023-08-30T13:42:38;20.9;52.1
78448;SHT31;67742;51.972;5.682;2023-08-30T13:45:07;20.9;51.4
78448;SHT31;67742;51.972;5.682;2023-08-30T13:47:38;20.9;52.7
78448;SHT31;67742;51.972;5.682;2023-08-30T13:50:11;20.9;50.7
78448;SHT31;67742;51.972;5.682;2023-08-30T13:52:39;20.9;51.3
78448;SHT31;67742;51.972;5.682;2023-08-30T13:55:09;21.0;50.4
78448;SHT31;67742;51.972;5.682;2023-08-30T13:57:37;21.0;50.3
78448;SHT31;67742;51.972;5.682;2023-08-30T14:00:07;21.0;49.8
78448;SHT31;67742;51.972;5.682;2023-08-30T14:02:36;21.0;50.2
78448;SHT31;67742;51.972;5.682;2023-08-30T14:05:06;21.0;51.1
78448;SHT31;67742;51.972;5.682;2023-08-30T14:07:34;21.0;50.8
78448;SHT31;67742;51.972;5.682;2023-08-30T14:10:03;21.0;50.6
78448;SHT31;67742;51.972;5.682;2023-08-30T14:12:32;21.0;51.3
78448;SHT31;67742;51.972;5.682;2023-08-30T14:15:02;21.0;51.3
78448;SHT31;67742;51.972;5.682;2023-08-30T14:17:30;21.0;51.4
78448;SHT31;67742;51.972;5.682;2023-08-30T14:19:59;21.0;52.2
78448;SHT31;67742;51.972;5.682;2023-08-30T14:22:28;21.0;52.4
78448;SHT31;67742;51.972;5.682;2023-08-30T14:24:56;21.1;52.0
78448;SHT31;67742;51.972;5.682;2023-08-30T14:27:25;21.1;50.4
78448;SHT31;67742;51.972;5.682;2023-08-30T14:29:55;21.1;51.1
78448;SHT31;67742;51.972;5.682;2023-08-30T14:32:23;21.1;52.0
78448;SHT31;67742;51.972;5.682;2023-08-30T14:34:52;21.1;51.1
78448;SHT31;67742;51.972;5.682;2023-08-30T14:37:20;21.2;50.2
78448;SHT31;67742;51.972;5.682;2023-08-30T14:39:49;21.2;50.0
78448;SHT31;67742;51.972;5.682;2023-08-30T14:42:19;21.2;49.6
78448;SHT31;67742;51.972;5.682;2023-08-30T14:44:51;21.1;49.7
78448;SHT31;67742;51.972;5.682;2023-08-30T14:47:19;21.1;50.8
78448;SHT31;67742;51.972;5.682;2023-08-30T14:49:49;21.0;51.8
78448;SHT31;67742;51.972;5.682;2023-08-30T14:52:19;21.0;50.9
78448;SHT31;67742;51.972;5.682;2023-08-30T14:54:47;21.0;49.9
78448;SHT31;67742;51.972;5.682;2023-08-30T14:57:16;20.9;49.9
78448;SHT31;67742;51.972;5.682;2023-08-30T14:59:44;20.8;49.3
78448;SHT31;67742;51.972;5.682;2023-08-30T15:02:13;20.8;48.7
78448;SHT31;67742;51.972;5.682;2023-08-30T15:04:42;20.7;49.4
78448;SHT31;67742;51.972;5.682;2023-08-30T15:07:10;20.6;50.1
78448;SHT31;67742;51.972;5.682;2023-08-30T15:09:39;20.5;50.8
78448;SHT31;67742;51.972;5.682;2023-08-30T15:12:08;20.4;51.8
78448;SHT31;67742;51.972;5.682;2023-08-30T15:14:36;20.4;52.2
78448;SHT31;67742;51.972;5.682;2023-08-30T15:17:07;20.3;52.5
78448;SHT31;67742;51.972;5.682;2023-08-30T15:19:36;20.2;52.5
78448;SHT31;67742;51.972;5.682;2023-08-30T15:22:05;20.2;53.0
78448;SHT31;67742;51.972;5.682;2023-08-30T15:24:33;20.1;53.2
78448;SHT31;67742;51.972;5.682;2023-08-30T15:27:02;20.1;53.2
78448;SHT31;67742;51.972;5.682;2023-08-30T15:29:31;20.1;53.8
78448;SHT31;67742;51.972;5.682;2023-08-30T15:32:00;20.0;54.3
78448;SHT31;67742;51.972;5.682;2023-08-30T15:34:29;20.0;54.6
78448;SHT31;67742;51.972;5.682;2023-08-30T15:36:57;19.9;54.8
78448;SHT31;67742;51.972;5.682;2023-08-30T15:39:25;19.9;55.3
78448;SHT31;67742;51.972;5.682;2023-08-30T15:41:54;19.8;56.1
78448;SHT31;67742;51.972;5.682;2023-08-30T15:44:24;19.8;57.3
78448;SHT31;67742;51.972;5.682;2023-08-30T15:46:52;19.7;58.8
78448;SHT31;67742;51.972;5.682;2023-08-30T15:49:20;19.7;60.3
78448;SHT31;67742;51.972;5.682;2023-08-30T15:51:49;19.6;61.0
78448;SHT31;67742;51.972;5.682;2023-08-30T15:54:17;19.5;61.8
78448;SHT31;67742;51.972;5.682;2023-08-30T15:56:46;19.4;61.3
78448;SHT31;67742;51.972;5.682;2023-08-30T15:59:15;19.4;62.3
78448;SHT31;67742;51.972;5.682;2023-08-30T16:01:43;19.4;62.9
78448;SHT31;67742;51.972;5.682;2023-08-30T16:04:11;19.4;63.8
78448;SHT31;67742;51.972;5.682;2023-08-30T16:06:40;19.4;63.6
78448;SHT31;67742;51.972;5.682;2023-08-30T16:09:11;19.3;63.9
78448;SHT31;67742;51.972;5.682;2023-08-30T16:11:40;19.3;63.5
78448;SHT31;67742;51.972;5.682;2023-08-30T16:14:08;19.3;63.5
78448;SHT31;67742;51.972;5.682;2023-08-30T16:16:40;19.2;63.4